Time;durP1;ratioP1;P1;durP2;ratioP2;P2;SDS_P1;SDS_P2;PMS_P1;PMS_P2;Temp;Humidity;BMP_temperature;BMP_pressure;BME280_temperature;BME280_humidity;BME280_pressure;Samples;Min_cycle;Max_cycle;Signal;HPM_P1;HPM_P2
2020/12/13 00:01:08;;;;;;;49.47;23.83;;;;;;;4.79;90.53;99447.47;5054574;28;20037;-65
2020/12/13 00:03:33;;;;;;;45.20;22.80;;;;;;;4.78;90.90;99446.66;5054908;28;20024;-65
2020/12/13 00:05:59;;;;;;;45.33;23.92;;;;;;;4.79;90.91;99441.88;5058468;28;20025;-65
2020/12/13 00:08:26;;;;;;;52.70;23.15;;;;;;;4.80;90.70;99452.63;5058299;28;20415;-66
2020/12/13 00:10:51;;;;;;;50.38;24.38;;;;;;;4.80;90.66;99449.06;5058750;28;20045;-65
2020/12/13 00:13:16;;;;;;;54.58;23.75;;;;;;;4.80;90.74;99454.63;5056813;28;20443;-65
2020/12/13 00:15:42;;;;;;;59.78;24.77;;;;;;;4.77;90.51;99456.19;5056219;28;20025;-65
2020/12/13 00:18:07;;;;;;;55.70;24.33;;;;;;;4.75;90.33;99461.34;5058485;28;20025;-65
2020/12/13 00:20:33;;;;;;;52.80;23.10;;;;;;;4.74;90.71;99456.97;5058260;28;20027;-65
2020/12/13 00:22:58;;;;;;;62.95;25.48;;;;;;;4.74;90.40;99458.97;5058155;28;20029;-65
2020/12/13 00:25:24;;;;;;;55.40;23.80;;;;;;;4.73;90.65;99455.38;5057938;28;20128;-66
2020/12/13 00:27:49;;;;;;;68.65;26.58;;;;;;;4.71;91.05;99457.75;5058206;28;20104;-66
2020/12/13 00:30:14;;;;;;;62.45;25.33;;;;;;;4.70;90.48;99456.16;5058134;28;20016;-66
2020/12/13 00:32:40;;;;;;;61.45;25.50;;;;;;;4.69;90.53;99456.53;5058088;28;20028;-66
2020/12/13 00:35:05;;;;;;;56.22;24.00;;;;;;;4.67;90.62;99459.72;5057933;28;20035;-66
2020/12/13 00:37:30;;;;;;;56.53;25.80;;;;;;;4.65;90.90;99465.63;5058099;28;20308;-66
2020/12/13 00:39:56;;;;;;;59.78;24.75;;;;;;;4.65;91.40;99471.19;5057664;28;20036;-65
2020/12/13 00:42:22;;;;;;;60.20;25.08;;;;;;;4.63;91.08;99479.13;5057857;28;20060;-66
2020/12/13 00:44:47;;;;;;;55.13;24.88;;;;;;;4.62;91.28;99480.31;5057872;28;20120;-66
2020/12/13 00:47:13;;;;;;;51.03;21.95;;;;;;;4.61;91.28;99475.13;5057700;28;20055;-65
2020/12/13 00:49:38;;;;;;;48.55;21.98;;;;;;;4.61;91.48;99481.50;5057570;28;20021;-66
2020/12/13 00:52:05;;;;;;;54.85;22.40;;;;;;;4.60;91.60;99481.91;5058024;28;20383;-66
2020/12/13 00:54:30;;;;;;;53.13;21.15;;;;;;;4.59;91.55;99486.66;5057252;28;20328;-66
2020/12/13 00:56:56;;;;;;;54.88;22.52;;;;;;;4.60;91.64;99476.31;5057787;28;20056;-66
2020/12/13 00:59:21;;;;;;;50.00;21.42;;;;;;;4.59;91.79;99486.66;5057560;28;20021;-65
2020/12/13 01:01:47;;;;;;;48.78;21.02;;;;;;;4.60;91.64;99495.81;5057771;28;20033;-65
2020/12/13 01:04:12;;;;;;;48.17;20.25;;;;;;;4.60;91.69;99496.59;5057325;28;20025;-66
2020/12/13 01:06:37;;;;;;;50.63;21.17;;;;;;;4.59;91.69;99494.22;5057587;28;20013;-66
2020/12/13 01:09:03;;;;;;;43.70;19.02;;;;;;;4.61;91.94;99497.41;5057461;28;20298;-66
2020/12/13 01:11:31;;;;;;;42.92;19.30;;;;;;;4.62;91.61;99493.44;5057128;28;20420;-66
2020/12/13 01:13:58;;;;;;;51.22;21.05;;;;;;;4.60;91.65;99498.59;5057594;28;20029;-66
2020/12/13 01:16:24;;;;;;;48.47;22.23;;;;;;;4.62;91.79;99490.66;5057167;28;20024;-66
2020/12/13 01:18:50;;;;;;;52.83;21.90;;;;;;;4.62;91.86;99497.03;5057212;28;20100;-66
2020/12/13 01:21:20;;;;;;;51.05;22.60;;;;;;;4.61;91.66;99494.63;5057615;28;20058;-66
2020/12/13 01:23:46;;;;;;;39.70;20.55;;;;;;;4.59;91.41;99506.16;5057122;28;20031;-65
2020/12/13 01:26:13;;;;;;;47.88;20.65;;;;;;;4.58;91.39;99500.97;5048904;28;20111;-65
2020/12/13 01:28:39;;;;;;;41.42;20.05;;;;;;;4.57;91.31;99508.50;5055320;28;20017;-65
2020/12/13 01:31:05;;;;;;;41.45;19.98;;;;;;;4.54;91.43;99498.16;5057438;28;20040;-66
2020/12/13 01:33:30;;;;;;;43.60;20.33;;;;;;;4.53;91.19;99502.13;5055511;28;20024;-67
2020/12/13 01:35:56;;;;;;;46.05;20.73;;;;;;;4.54;91.12;99497.34;5057258;28;20025;-65
2020/12/13 01:38:21;;;;;;;41.33;19.85;;;;;;;4.53;91.15;99501.31;5056986;28;20016;-65
2020/12/13 01:40:46;;;;;;;42.45;20.08;;;;;;;4.52;91.61;99494.97;5056638;28;20037;-65
2020/12/13 01:43:11;;;;;;;42.30;19.60;;;;;;;4.56;90.98;99500.53;5056740;28;20075;-65
2020/12/13 01:45:37;;;;;;;44.33;19.63;;;;;;;4.53;90.69;99507.69;5055845;28;20032;-65
2020/12/13 01:48:03;;;;;;;41.08;19.67;;;;;;;4.47;90.94;99506.44;5056464;28;20060;-65
2020/12/13 01:53:18;;;;;;;46.95;20.40;;;;;;;4.38;90.56;99505.94;5057001;28;20347;-65
2020/12/13 01:55:47;;;;;;;31.23;14.57;;;;;;;4.31;90.95;99508.66;5056456;28;20057;-65
2020/12/13 01:58:40;;;;;;;43.95;19.40;;;;;;;4.27;90.51;99516.97;5054505;28;20028;-65
2020/12/13 02:01:07;;;;;;;41.40;19.63;;;;;;;4.26;90.68;99520.13;5043529;28;20112;-65
2020/12/13 02:03:43;;;;;;;45.40;20.42;;;;;;;4.26;90.98;99514.56;5056639;28;20021;-65
2020/12/13 02:06:16;;;;;;;41.85;20.30;;;;;;;4.26;90.93;99509.81;5056071;28;20036;-65
2020/12/13 02:08:42;;;;;;;47.22;20.98;;;;;;;4.26;90.94;99504.25;5056347;28;20017;-65
2020/12/13 02:11:10;;;;;;;45.38;20.95;;;;;;;4.27;91.01;99505.84;5056824;28;20036;-65
2020/12/13 02:13:39;;;;;;;50.50;22.08;;;;;;;4.28;91.38;99515.78;5056131;28;20031;-65
2020/12/13 02:16:06;;;;;;;46.30;22.15;;;;;;;4.30;91.42;99509.84;5056266;28;20025;-65
2020/12/13 02:18:31;;;;;;;47.58;21.40;;;;;;;4.30;91.30;99515.41;5056126;28;20674;-65
2020/12/13 02:20:57;;;;;;;46.63;22.10;;;;;;;4.30;91.22;99516.19;5056156;28;20033;-65
2020/12/13 02:23:22;;;;;;;42.10;21.15;;;;;;;4.32;91.30;99505.50;5055861;28;20021;-65
2020/12/13 02:25:49;;;;;;;43.17;20.60;;;;;;;4.34;91.36;99514.25;5056275;28;20032;-65
2020/12/13 02:28:14;;;;;;;39.08;18.35;;;;;;;4.34;91.34;99527.34;5055409;28;20028;-65
2020/12/13 02:30:40;;;;;;;40.05;19.23;;;;;;;4.35;91.32;99523.41;5056027;28;20025;-66
2020/12/13 02:33:06;;;;;;;38.30;17.92;;;;;;;4.35;90.79;99526.19;5055925;28;20025;-65
2020/12/13 02:35:32;;;;;;;37.88;19.15;;;;;;;4.33;90.65;99522.97;5055646;28;20086;-65
2020/12/13 02:37:57;;;;;;;35.22;18.38;;;;;;;4.33;90.96;99528.53;5055714;28;20022;-65
2020/12/13 02:40:23;;;;;;;32.45;17.10;;;;;;;4.32;90.80;99524.16;5055479;28;20025;-65
2020/12/13 02:42:48;;;;;;;37.83;19.42;;;;;;;4.33;90.81;99525.75;5055865;28;20028;-66
2020/12/13 02:45:13;;;;;;;34.67;18.25;;;;;;;4.32;90.46;99524.16;5054153;28;20025;-65
2020/12/13 02:47:39;;;;;;;35.88;18.67;;;;;;;4.38;90.63;99533.75;5054585;28;20356;-65
2020/12/13 02:50:05;;;;;;;40.95;20.27;;;;;;;4.38;90.97;99539.31;5055789;28;20320;-65
2020/12/13 02:52:30;;;;;;;38.97;19.40;;;;;;;4.35;90.61;99538.09;5055241;28;20025;-65
2020/12/13 02:54:55;;;;;;;43.50;20.65;;;;;;;4.35;90.59;99537.31;5053548;28;20095;-66
2020/12/13 02:57:21;;;;;;;40.78;21.80;;;;;;;4.34;90.67;99544.84;5055470;28;20151;-65
2020/12/13 02:59:47;;;;;;;40.22;20.23;;;;;;;4.34;90.71;99539.28;5055132;28;20025;-65
2020/12/13 03:02:12;;;;;;;42.67;21.20;;;;;;;4.35;90.50;99548.44;5037031;28;20065;-65
2020/12/13 03:04:37;;;;;;;43.60;21.65;;;;;;;4.34;90.93;99546.84;5049443;28;20021;-66
2020/12/13 03:07:03;;;;;;;47.80;22.52;;;;;;;4.36;90.77;99555.59;5035656;28;20025;-65
2020/12/13 03:09:28;;;;;;;47.67;22.15;;;;;;;4.36;90.57;99555.59;5034901;28;20409;-65
2020/12/13 03:11:54;;;;;;;48.05;23.58;;;;;;;4.42;90.46;99558.88;5041084;28;20027;-65
2020/12/13 03:14:19;;;;;;;49.17;23.13;;;;;;;4.42;90.62;99556.88;5042216;28;20035;-65
2020/12/13 03:16:45;;;;;;;52.40;24.50;;;;;;;4.41;90.38;99566.41;5051724;28;20024;-65
2020/12/13 03:19:10;;;;;;;51.50;24.50;;;;;;;4.39;90.44;99560.44;5044369;28;20029;-66
2020/12/13 03:21:35;;;;;;;48.88;22.85;;;;;;;4.40;90.23;99559.25;5035060;28;20060;-66
2020/12/13 03:24:01;;;;;;;45.45;22.55;;;;;;;4.39;90.39;99563.22;5035162;28;20155;-65
2020/12/13 03:26:26;;;;;;;47.83;22.23;;;;;;;4.41;90.18;99565.59;5034996;28;20029;-66
2020/12/13 03:28:51;;;;;;;44.75;21.58;;;;;;;4.43;90.20;99561.25;5040775;28;20028;-65
2020/12/13 03:31:17;;;;;;;40.70;19.67;;;;;;;4.44;90.57;99564.84;5043613;28;20048;-66
2020/12/13 03:33:42;;;;;;;42.88;20.55;;;;;;;4.43;89.83;99560.47;5038602;28;20017;-66
2020/12/13 03:36:07;;;;;;;41.53;21.63;;;;;;;4.41;90.00;99563.63;5045421;28;20033;-66
2020/12/13 03:38:33;;;;;;;42.25;20.60;;;;;;;4.44;90.08;99557.28;5049274;28;20017;-66
2020/12/13 03:40:58;;;;;;;37.90;19.23;;;;;;;4.43;89.42;99564.03;5039160;28;20025;-66
2020/12/13 03:43:23;;;;;;;42.63;20.25;;;;;;;4.43;89.47;99561.25;5039021;28;20109;-65
2020/12/13 03:45:49;;;;;;;39.20;19.77;;;;;;;4.41;89.72;99560.84;5039179;28;20061;-65
2020/12/13 03:48:14;;;;;;;44.30;22.25;;;;;;;4.46;89.26;99574.41;5038978;28;20018;-65
2020/12/13 03:50:39;;;;;;;41.55;21.13;;;;;;;4.48;89.09;99574.81;5039118;28;20053;-65
2020/12/13 03:53:09;;;;;;;43.28;20.75;;;;;;;4.45;89.04;99570.03;5039031;28;20028;-65
2020/12/13 03:55:35;;;;;;;44.50;21.92;;;;;;;4.43;88.93;99575.19;5038566;28;20053;-65
2020/12/13 03:58:00;;;;;;;43.78;20.90;;;;;;;4.42;89.40;99579.13;5039057;28;20108;-65
2020/12/13 04:00:27;;;;;;;40.95;21.00;;;;;;;4.41;89.33;99582.31;5038932;28;20388;-65
2020/12/13 04:02:54;;;;;;;39.97;19.75;;;;;;;4.39;89.04;99579.91;5057489;28;20047;-66
2020/12/13 04:05:20;;;;;;;41.28;20.90;;;;;;;4.40;89.47;99587.06;5047656;28;20029;-65
2020/12/13 04:07:46;;;;;;;39.35;19.95;;;;;;;4.38;88.85;99583.84;5038496;28;20030;-65
2020/12/13 04:10:11;;;;;;;42.88;22.63;;;;;;;4.35;88.87;99590.16;5038819;28;20025;-65
2020/12/13 04:12:36;;;;;;;47.50;22.23;;;;;;;4.32;89.18;99585.38;5038174;28;20021;-66
2020/12/13 04:15:02;;;;;;;47.60;21.60;;;;;;;4.33;89.17;99587.75;5038763;28;20057;-66
2020/12/13 04:17:27;;;;;;;47.70;22.65;;;;;;;4.36;89.33;99591.75;5038616;28;20026;-66
2020/12/13 04:19:53;;;;;;;44.35;21.98;;;;;;;4.38;89.44;99594.97;5040496;28;20064;-66
2020/12/13 04:22:18;;;;;;;45.10;23.00;;;;;;;4.35;89.01;99590.97;5045993;28;20033;-65
2020/12/13 04:24:43;;;;;;;45.85;22.60;;;;;;;4.34;89.31;99594.94;5038310;28;20412;-66
2020/12/13 04:27:08;;;;;;;43.63;22.63;;;;;;;4.34;88.90;99596.91;5049352;28;20025;-66
2020/12/13 04:29:34;;;;;;;47.45;23.25;;;;;;;4.32;89.36;99602.06;5038330;28;20525;-65
2020/12/13 04:31:59;;;;;;;52.65;24.40;;;;;;;4.32;88.76;99600.06;5043887;28;20086;-66
2020/12/13 04:34:24;;;;;;;52.50;24.48;;;;;;;4.35;89.04;99602.09;5051757;28;20481;-66
2020/12/13 04:36:50;;;;;;;50.25;23.88;;;;;;;4.36;89.07;99600.13;5039609;28;20104;-66
2020/12/13 04:39:15;;;;;;;53.70;25.13;;;;;;;4.35;89.25;99599.31;5038035;28;20360;-66
2020/12/13 04:41:40;;;;;;;56.33;25.67;;;;;;;4.34;88.85;99599.69;5037724;28;20025;-65
2020/12/13 04:44:06;;;;;;;48.60;24.65;;;;;;;4.33;89.34;99596.09;5038132;28;20036;-65
2020/12/13 04:46:31;;;;;;;54.88;23.77;;;;;;;4.39;89.51;99604.16;5037936;28;20075;-66
2020/12/13 04:48:57;;;;;;;51.35;24.05;;;;;;;4.39;89.17;99612.50;5037558;28;20380;-66
2020/12/13 04:51:26;;;;;;;49.40;23.85;;;;;;;4.39;89.31;99602.16;5048178;28;20115;-66
2020/12/13 04:54:04;;;;;;;53.15;23.48;;;;;;;4.38;89.50;99600.53;5047489;28;20120;-65
2020/12/13 04:56:32;;;;;;;53.05;24.38;;;;;;;4.37;89.12;99603.69;5039953;28;20128;-65
2020/12/13 04:59:01;;;;;;;49.28;24.58;;;;;;;4.35;89.46;99596.53;5037968;28;20333;-65
2020/12/13 05:01:26;;;;;;;49.33;23.33;;;;;;;4.35;89.29;99601.28;5038010;28;20022;-65
2020/12/13 05:03:51;;;;;;;46.97;22.85;;;;;;;4.34;89.43;99599.69;5050694;28;20105;-65
2020/12/13 05:06:18;;;;;;;49.65;24.10;;;;;;;4.34;89.76;99594.94;5038456;28;20160;-65
2020/12/13 05:08:46;;;;;;;52.50;24.35;;;;;;;4.35;89.79;99590.16;5037636;28;20017;-65
2020/12/13 05:11:12;;;;;;;54.20;24.15;;;;;;;4.34;89.50;99599.69;5053715;28;20028;-66
2020/12/13 05:13:38;;;;;;;56.80;24.05;;;;;;;4.35;89.68;99596.53;5049121;28;20094;-66
2020/12/13 05:16:06;;;;;;;60.08;22.90;;;;;;;4.39;89.85;99602.16;5037729;28;20025;-66
2020/12/13 05:18:31;;;;;;;52.25;22.60;;;;;;;4.40;89.56;99600.97;5043853;28;20017;-66
2020/12/13 05:20:57;;;;;;;52.67;23.88;;;;;;;4.43;89.59;99605.78;5037461;28;20031;-65
2020/12/13 05:23:23;;;;;;;50.88;24.55;;;;;;;4.45;89.30;99605.41;5037101;28;20026;-66
2020/12/13 05:25:51;;;;;;;50.90;23.70;;;;;;;4.47;89.71;99600.25;5040083;28;20029;-66
2020/12/13 05:28:22;;;;;;;58.55;24.55;;;;;;;4.46;89.46;99607.78;5053823;28;20024;-65
2020/12/13 05:30:49;;;;;;;56.20;25.27;;;;;;;4.50;89.53;99614.19;5056371;28;20024;-65
2020/12/13 05:35:48;;;;;;;50.00;22.02;;;;;;;4.52;88.99;99619.38;5037483;28;20037;-66
2020/12/13 05:38:16;;;;;;;48.90;24.38;;;;;;;4.50;88.74;99619.75;5036885;28;20029;-65
2020/12/13 05:40:42;;;;;;;60.42;23.48;;;;;;;4.54;89.07;99614.22;5036816;28;20104;-65
2020/12/13 05:43:15;;;;;;;59.80;25.38;;;;;;;4.63;88.65;99623.06;5049814;28;20033;-66
2020/12/13 05:53:15;;;;;;;53.67;24.90;;;;;;;4.58;88.19;99615.06;5036626;28;20022;-66
2020/12/13 05:55:42;;;;;;;49.25;22.63;;;;;;;4.56;88.49;99628.56;5036268;28;20556;-66
2020/12/13 05:58:07;;;;;;;52.70;22.42;;;;;;;4.53;88.71;99624.56;5036904;28;20455;-65
2020/12/13 06:00:33;;;;;;;47.13;23.25;;;;;;;4.52;88.72;99628.53;5036468;28;20045;-65
2020/12/13 06:02:59;;;;;;;44.65;22.33;;;;;;;4.49;88.77;99632.06;5041287;28;20057;-66
2020/12/13 06:05:27;;;;;;;48.63;22.13;;;;;;;4.48;88.51;99636.03;5044903;28;20028;-65
2020/12/13 06:07:58;;;;;;;46.17;21.48;;;;;;;4.51;89.22;99637.25;5036339;28;20329;-66
2020/12/13 06:10:26;;;;;;;51.05;23.20;;;;;;;4.53;88.87;99641.25;5036672;28;20028;-66
2020/12/13 06:13:02;;;;;;;55.80;24.13;;;;;;;4.51;89.13;99637.25;5036335;28;20029;-66
2020/12/13 06:15:29;;;;;;;49.50;23.08;;;;;;;4.57;88.83;99639.31;5036405;28;20021;-66
2020/12/13 06:17:54;;;;;;;44.97;21.90;;;;;;;4.58;88.74;99643.69;5036194;28;20022;-65
2020/12/13 06:20:21;;;;;;;47.53;22.08;;;;;;;4.62;88.51;99644.53;5036064;28;20100;-66
2020/12/13 06:22:49;;;;;;;44.65;21.42;;;;;;;4.65;87.65;99642.97;5037434;28;20067;-65
2020/12/13 06:25:15;;;;;;;47.63;21.92;;;;;;;4.69;87.77;99649.41;5054362;28;20104;-66
2020/12/13 06:27:40;;;;;;;41.95;21.48;;;;;;;4.78;87.36;99649.09;5050686;28;20422;-66
2020/12/13 06:30:09;;;;;;;35.53;19.00;;;;;;;4.77;86.78;99642.72;5036921;28;20017;-66
2020/12/13 06:32:39;;;;;;;40.28;19.92;;;;;;;4.75;86.40;99647.06;5040938;28;20034;-66
2020/12/13 06:35:04;;;;;;;37.45;21.00;;;;;;;4.73;86.13;99644.66;5035901;28;20028;-66
2020/12/13 06:37:30;;;;;;;40.83;21.00;;;;;;;4.78;86.28;99657.44;5035793;28;20025;-66
2020/12/13 06:39:55;;;;;;;39.90;20.30;;;;;;;4.76;85.81;99652.25;5052237;28;20036;-66
2020/12/13 06:42:27;;;;;;;44.83;20.90;;;;;;;4.73;86.10;99650.25;5045605;28;20028;-66
2020/12/13 06:45:22;;;;;;;;;;;;;;;4.70;86.34;99655.78;5047869;28;20035;-66
2020/12/13 06:47:47;;;;;;;80.90;34.90;;;;;;;4.67;86.75;99656.53;5035504;28;19913;-65
2020/12/13 06:50:24;;;;;;;54.28;27.45;;;;;;;4.64;86.37;99653.31;5049999;28;20321;-66
2020/12/13 06:52:51;;;;;;;43.58;22.75;;;;;;;4.64;86.66;99660.84;5050842;28;20174;-65
2020/12/13 06:55:17;;;;;;;47.63;21.25;;;;;;;4.63;87.02;99660.06;5054347;28;20124;-66
2020/12/13 06:57:45;;;;;;;39.88;21.92;;;;;;;4.61;87.06;99667.19;5054492;28;20405;-66
2020/12/13 07:00:10;;;;;;;46.47;23.48;;;;;;;4.60;87.07;99658.03;5054768;28;20056;-65
2020/12/13 07:02:58;;;;;;;43.25;22.52;;;;;;;4.61;87.28;99665.22;5055172;28;20044;-65
2020/12/13 07:05:46;;;;;;;44.78;23.23;;;;;;;4.58;87.29;99670.72;5043919;28;20029;-65
2020/12/13 07:08:16;;;;;;;45.95;22.90;;;;;;;4.54;87.08;99679.03;5047124;28;20027;-66
2020/12/13 07:10:45;;;;;;;44.55;23.50;;;;;;;4.53;87.01;99679.44;5053544;28;20024;-66
2020/12/13 07:13:14;;;;;;;52.67;24.27;;;;;;;4.54;87.49;99667.91;5058114;28;20035;-65
2020/12/13 07:15:48;;;;;;;48.72;25.25;;;;;;;4.56;87.22;99670.31;5058853;28;20029;-66
2020/12/13 07:18:17;;;;;;;56.00;25.23;;;;;;;4.55;87.25;99677.88;5059900;28;20029;-66
2020/12/13 07:20:44;;;;;;;54.45;26.92;;;;;;;4.55;87.64;99682.63;5041104;28;20340;-66
2020/12/13 07:23:09;;;;;;;51.92;26.88;;;;;;;4.61;87.78;99681.91;5043164;28;20028;-66
2020/12/13 07:25:35;;;;;;;49.05;25.00;;;;;;;4.64;87.23;99689.50;5057556;28;20039;-66
2020/12/13 07:28:02;;;;;;;56.90;24.88;;;;;;;4.64;87.53;99699.81;5066504;28;20112;-66
2020/12/13 07:30:28;;;;;;;57.85;27.67;;;;;;;4.72;86.83;99692.38;5053466;28;20100;-66
2020/12/13 07:32:56;;;;;;;54.70;26.95;;;;;;;4.73;86.68;99702.34;5049795;28;20029;-66
2020/12/13 07:35:23;;;;;;;51.47;26.55;;;;;;;4.72;86.88;99704.31;5047676;28;20178;-66
2020/12/13 07:37:50;;;;;;;58.20;28.40;;;;;;;4.73;86.78;99697.56;5046704;28;20033;-67
2020/12/13 07:40:15;;;;;;;55.13;26.85;;;;;;;4.74;87.04;99690.81;5043173;28;20021;-66
2020/12/13 07:43:05;;;;;;;53.65;27.05;;;;;;;4.81;86.75;99702.03;5044951;28;20380;-66
2020/12/13 07:45:30;;;;;;;48.92;24.92;;;;;;;4.81;86.53;99701.22;5041841;28;20021;-65
2020/12/13 07:48:03;;;;;;;45.13;24.45;;;;;;;4.80;86.37;99710.75;5046218;28;20036;-65
2020/12/13 07:50:43;;;;;;;46.22;25.00;;;;;;;4.85;86.25;99705.66;5041225;28;20044;-65
2020/12/13 07:53:08;;;;;;;44.10;25.58;;;;;;;4.86;86.20;99715.59;5049387;28;20025;-64
2020/12/13 07:55:33;;;;;;;59.25;29.27;;;;;;;4.88;85.83;99724.38;5045884;28;20515;-66
2020/12/13 07:58:00;;;;;;;51.55;26.35;;;;;;;4.87;85.60;99733.09;5047576;28;20037;-63
2020/12/13 08:00:25;;;;;;;53.30;28.42;;;;;;;4.85;85.96;99727.91;5043888;28;20025;-65
2020/12/13 08:02:56;;;;;;;54.08;29.67;;;;;;;4.81;85.85;99729.06;5054265;28;20366;-65
2020/12/13 08:05:25;;;;;;;53.95;28.45;;;;;;;4.78;86.00;99730.63;5058415;28;20333;-64
2020/12/13 08:08:00;;;;;;;51.55;26.75;;;;;;;4.84;85.77;99731.88;5045562;28;20116;-65
2020/12/13 08:10:29;;;;;;;61.55;30.60;;;;;;;4.85;85.54;99732.69;5060528;28;20024;-65
2020/12/13 08:12:55;;;;;;;57.15;29.45;;;;;;;4.82;85.93;99741.81;5064774;28;20032;-63
2020/12/13 08:15:22;;;;;;;57.45;32.22;;;;;;;4.81;85.46;99741.00;5070111;28;20035;-65
2020/12/13 08:18:07;;;;;;;57.33;31.88;;;;;;;4.77;86.09;99740.16;5071757;28;20017;-64
2020/12/13 08:20:45;;;;;;;63.83;32.55;;;;;;;4.79;86.63;99743.38;5068615;28;20032;-65
2020/12/13 08:23:12;;;;;;;58.80;30.95;;;;;;;4.78;86.08;99746.53;5065651;28;20033;-65
2020/12/13 08:25:37;;;;;;;62.00;31.52;;;;;;;4.77;86.13;99745.72;5071895;28;20052;-65
2020/12/13 08:28:06;;;;;;;59.05;29.38;;;;;;;4.76;85.91;99744.13;5065874;28;20379;-65
2020/12/13 08:30:33;;;;;;;61.00;31.20;;;;;;;4.74;86.02;99756.84;5069715;28;20024;-65
2020/12/13 08:32:59;;;;;;;58.38;29.05;;;;;;;4.78;86.20;99757.66;5072908;28;20411;-65
2020/12/13 08:35:24;;;;;;;60.63;31.38;;;;;;;4.82;86.10;99748.19;5046499;28;20020;-65
2020/12/13 08:37:54;;;;;;;57.00;30.50;;;;;;;4.81;85.87;99757.72;5060845;28;20293;-65
2020/12/13 08:40:33;;;;;;;56.75;29.63;;;;;;;4.81;85.92;99765.25;5064433;28;20301;-65
2020/12/13 08:42:58;;;;;;;60.20;30.80;;;;;;;4.81;86.14;99768.03;5059535;28;20079;-65
2020/12/13 08:45:25;;;;;;;51.22;26.52;;;;;;;4.79;85.82;99771.22;5064585;28;20021;-64
2020/12/13 08:47:50;;;;;;;50.45;28.40;;;;;;;4.76;85.98;99766.41;5067600;28;20027;-64
2020/12/13 08:50:19;;;;;;;54.70;29.13;;;;;;;4.76;86.06;99776.75;5065603;28;20017;-64
2020/12/13 08:52:44;;;;;;;51.63;27.73;;;;;;;4.80;85.87;99772.00;5063550;28;20036;-65
2020/12/13 08:55:09;;;;;;;61.35;31.10;;;;;;;4.83;86.10;99774.84;5061396;28;20044;-65
2020/12/13 08:57:45;;;;;;;61.65;30.02;;;;;;;4.82;85.88;99776.03;5074591;28;20020;-65
2020/12/13 09:00:17;;;;;;;52.03;28.10;;;;;;;4.77;85.87;99779.16;5074244;28;20020;-65
2020/12/13 09:03:00;;;;;;;56.08;30.77;;;;;;;4.75;86.21;99778.72;5072715;28;20024;-65
2020/12/13 09:05:28;;;;;;;62.75;32.97;;;;;;;4.78;86.76;99777.97;5052999;28;20083;-64
2020/12/13 09:07:54;;;;;;;57.17;31.02;;;;;;;4.83;86.62;99785.16;5043205;28;20021;-65
2020/12/13 09:10:21;;;;;;;63.45;34.13;;;;;;;4.87;86.23;99788.81;5045795;28;20028;-65
2020/12/13 09:12:47;;;;;;;54.85;30.60;;;;;;;4.89;86.45;99797.56;5050926;28;20024;-65
2020/12/13 09:15:20;;;;;;;50.28;28.70;;;;;;;4.85;86.21;99791.97;5040133;28;20032;-64
2020/12/13 09:17:56;;;;;;;53.45;29.60;;;;;;;4.84;85.81;99792.34;5042322;28;20150;-64
2020/12/13 09:20:23;;;;;;;58.42;31.02;;;;;;;4.84;85.94;99795.13;5059014;28;20082;-64
2020/12/13 09:22:59;;;;;;;51.47;28.42;;;;;;;4.94;85.39;99794.47;5065827;28;20040;-64
2020/12/13 09:25:25;;;;;;;49.75;27.38;;;;;;;4.94;85.48;99795.28;5062876;28;20024;-64
2020/12/13 09:27:50;;;;;;;51.33;28.73;;;;;;;5.00;85.32;99786.59;5069051;28;20082;-61
2020/12/13 09:30:15;;;;;;;51.72;28.70;;;;;;;5.01;85.44;99788.19;5067443;28;20024;-65
2020/12/13 09:32:40;;;;;;;51.00;28.67;;;;;;;5.01;85.52;99782.63;5065325;28;20423;-65
2020/12/13 09:35:06;;;;;;;55.60;31.05;;;;;;;4.97;85.50;99786.16;5068061;28;20532;-65
2020/12/13 09:37:31;;;;;;;52.92;30.00;;;;;;;4.97;85.54;99793.72;5062932;28;20055;-66
2020/12/13 09:39:56;;;;;;;56.58;29.38;;;;;;;4.95;85.74;99791.31;5060069;28;20297;-65
2020/12/13 09:42:22;;;;;;;52.90;27.55;;;;;;;4.94;85.28;99783.34;5064637;28;20057;-68
2020/12/13 09:44:49;;;;;;;52.00;28.15;;;;;;;4.94;85.46;99794.47;5066051;28;20319;-66
2020/12/13 09:47:15;;;;;;;48.72;28.02;;;;;;;4.94;85.63;99797.28;5066219;28;20020;-64
2020/12/13 09:49:41;;;;;;;49.55;27.17;;;;;;;4.99;85.07;99791.34;5071647;28;20438;-64
2020/12/13 09:52:06;;;;;;;52.58;27.65;;;;;;;5.00;84.87;99792.97;5060603;28;20037;-63
2020/12/13 09:54:31;;;;;;;53.38;28.20;;;;;;;5.07;85.04;99798.59;5064679;28;20445;-63
2020/12/13 09:56:57;;;;;;;50.63;28.88;;;;;;;5.05;84.98;99806.53;5059329;28;20041;-64
2020/12/13 09:59:22;;;;;;;55.38;28.80;;;;;;;5.04;84.75;99799.38;5066257;28;20013;-64
2020/12/13 10:01:48;;;;;;;54.78;30.58;;;;;;;5.03;85.30;99797.75;5063258;28;20336;-63
2020/12/13 10:04:15;;;;;;;51.95;29.17;;;;;;;5.01;85.49;99799.31;5061693;28;20032;-63
2020/12/13 10:06:50;;;;;;;56.33;31.13;;;;;;;5.03;85.54;99797.75;5052019;28;20033;-63
2020/12/13 10:09:17;;;;;;;57.10;30.42;;;;;;;5.06;85.34;99791.44;5051407;28;20119;-63
2020/12/13 10:11:45;;;;;;;56.25;29.90;;;;;;;5.04;85.33;99793.78;5055748;28;20031;-65
2020/12/13 10:14:11;;;;;;;52.08;28.35;;;;;;;5.01;84.96;99789.00;5054112;28;20032;-64
2020/12/13 10:16:38;;;;;;;50.70;28.08;;;;;;;4.97;85.19;99791.75;5064718;28;20016;-64
2020/12/13 10:19:04;;;;;;;45.13;25.33;;;;;;;4.96;85.21;99792.13;5064468;28;20082;-64
2020/12/13 10:21:31;;;;;;;46.90;25.80;;;;;;;4.92;85.26;99792.03;5056178;28;20104;-62
2020/12/13 10:23:57;;;;;;;49.55;25.48;;;;;;;4.94;85.36;99791.69;5054554;28;20439;-63
2020/12/13 10:26:28;;;;;;;43.38;24.45;;;;;;;4.95;85.47;99796.88;5046260;28;20112;-62
2020/12/13 10:28:55;;;;;;;54.10;25.88;;;;;;;4.99;85.23;99798.91;5040246;28;20105;-64
2020/12/13 10:31:34;;;;;;;49.08;25.20;;;;;;;5.01;85.49;99802.13;5043792;28;20032;-63
2020/12/13 10:34:00;;;;;;;44.03;24.35;;;;;;;5.04;84.70;99804.94;5040376;28;20234;-62
2020/12/13 10:36:26;;;;;;;50.15;27.05;;;;;;;5.03;85.02;99800.56;5047615;28;20036;-64
2020/12/13 10:38:52;;;;;;;51.95;27.08;;;;;;;5.06;84.75;99798.97;5039868;28;20029;-62
2020/12/13 10:41:19;;;;;;;50.08;26.35;;;;;;;5.06;84.51;99791.44;5041147;28;20380;-62
2020/12/13 10:43:44;;;;;;;47.20;26.27;;;;;;;5.07;84.76;99787.47;5043305;28;20025;-63
2020/12/13 10:46:10;;;;;;;49.28;25.08;;;;;;;5.09;84.58;99784.28;5040687;28;20084;-61
2020/12/13 10:48:35;;;;;;;51.30;28.13;;;;;;;5.14;85.23;99793.09;5052468;28;20021;-61
2020/12/13 10:51:01;;;;;;;49.08;26.95;;;;;;;5.21;84.25;99793.22;5065487;28;20028;-65
2020/12/13 10:53:27;;;;;;;49.03;26.77;;;;;;;5.23;84.53;99782.47;5063096;28;20147;-64
2020/12/13 10:55:53;;;;;;;52.60;28.80;;;;;;;5.25;84.17;99782.09;5048773;28;20116;-64
2020/12/13 10:58:19;;;;;;;51.92;27.65;;;;;;;5.30;84.08;99780.94;5057474;28;20028;-61
2020/12/13 11:00:44;;;;;;;58.72;31.35;;;;;;;5.34;83.70;99784.56;5060907;28;20327;-62
2020/12/13 11:03:10;;;;;;;55.05;29.30;;;;;;;5.41;83.89;99781.84;5064840;28;20043;-62
2020/12/13 11:05:36;;;;;;;57.63;30.42;;;;;;;5.37;83.88;99783.81;5066339;28;20021;-63
2020/12/13 11:08:01;;;;;;;60.13;32.85;;;;;;;5.34;83.94;99779.00;5062024;28;20064;-62
2020/12/13 11:10:26;;;;;;;59.90;31.05;;;;;;;5.28;84.23;99786.91;5065889;28;20070;-62
2020/12/13 11:12:52;;;;;;;61.60;34.65;;;;;;;5.27;84.03;99796.44;5064370;28;20484;-61
2020/12/13 11:15:17;;;;;;;58.50;30.10;;;;;;;5.23;84.21;99790.84;5067980;28;20412;-61
2020/12/13 11:17:43;;;;;;;57.35;28.77;;;;;;;5.16;84.39;99790.75;5064905;28;20408;-62
2020/12/13 11:20:09;;;;;;;73.60;38.58;;;;;;;5.11;84.62;99802.22;5060677;28;20048;-63
2020/12/13 11:22:34;;;;;;;55.15;29.92;;;;;;;5.15;84.80;99794.72;5065327;28;20374;-62
2020/12/13 11:25:00;;;;;;;56.72;29.67;;;;;;;5.12;84.67;99801.03;5057817;28;20097;-62
2020/12/13 11:27:25;;;;;;;48.78;27.27;;;;;;;5.12;84.89;99795.47;5063591;28;20028;-62
2020/12/13 11:29:50;;;;;;;52.55;29.50;;;;;;;5.12;84.89;99801.03;5060766;28;20047;-63
2020/12/13 11:32:16;;;;;;;57.10;29.50;;;;;;;5.10;84.94;99797.84;5069023;28;20027;-62
2020/12/13 11:34:41;;;;;;;58.60;27.15;;;;;;;5.10;84.82;99802.59;5063450;28;20059;-62
2020/12/13 11:37:07;;;;;;;53.65;28.50;;;;;;;5.13;84.68;99810.19;5064287;28;20334;-63
2020/12/13 11:39:34;;;;;;;47.88;26.50;;;;;;;5.14;84.78;99807.03;5068339;28;20025;-63